Holly Hill, Florida
Current Conditions -  °F | °C
As of 4:53 PM on Sunday 21 Dec 2014 (Local Time) from KDAB Reporting Station
Light Rain Light Rain  
Wind Chill: 69°   Ceiling: 11000
Heat Index: 69°   Visibility: 10mi
Dew Point: 64°   Wind: 3mph
Humidity: 84%   Direction: 40°NE
Pressure: 30.04"   Gusts: NA
Location:  29.25°N, 81.04°W
Report Text: KDAB 212153Z 04003KT 10SM -RA FEW035 SCT055 BKN110 OVC150 21/18 A3004 RMK AO2 RAB45 SLP170 P0000 T02060178
Loading
Personal Weather Stations






























Interactive Weather Map New forecast layout! Learn more

10-Day Weather Forecast

Advertisements
Track Severe Weather on mobile